Time;durP1;ratioP1;P1;durP2;ratioP2;P2;SDS_P1;SDS_P2;PMS_P1;PMS_P2;Temp;Humidity;BMP_temperature;BMP_pressure;BME280_temperature;BME280_humidity;BME280_pressure;Samples;Min_cycle;Max_cycle;Signal;HPM_P1;HPM_P2
2022/06/21 00:01:18;;;;;;;10.00;1.60;;;13.40;93.70;;;;;;5013256;28;20073;-43
2022/06/21 00:03:46;;;;;;;6.47;1.70;;;13.40;93.50;;;;;;4994112;28;20061;-43
2022/06/21 00:06:13;;;;;;;7.38;2.00;;;13.40;93.50;;;;;;5012131;28;20096;-43
2022/06/21 00:08:40;;;;;;;5.53;1.63;;;13.30;93.70;;;;;;5012502;28;20050;-43
2022/06/21 00:11:17;;;;;;;6.30;1.60;;;13.30;93.80;;;;;;5014512;28;20041;-43
2022/06/21 00:13:44;;;;;;;9.95;1.85;;;13.30;93.50;;;;;;5012452;28;20057;-43
2022/06/21 00:16:12;;;;;;;8.27;2.00;;;13.20;93.60;;;;;;5012949;28;20100;-42
2022/06/21 00:18:39;;;;;;;3.42;1.35;;;13.10;93.70;;;;;;5009915;28;20104;-43
2022/06/21 00:21:06;;;;;;;8.38;1.80;;;13.20;93.60;;;;;;5010772;28;20042;-42
2022/06/21 00:23:33;;;;;;;10.50;2.03;;;13.10;93.60;;;;;;5004222;28;20042;-42
2022/06/21 00:26:00;;;;;;;8.60;1.98;;;13.10;93.80;;;;;;4994870;28;20045;-42
2022/06/21 00:28:28;;;;;;;8.18;2.58;;;13.10;93.90;;;;;;4995491;28;20088;-41
2022/06/21 00:30:55;;;;;;;5.50;1.90;;;13.10;94.00;;;;;;5010580;28;20501;-43
2022/06/21 00:33:23;;;;;;;7.95;2.17;;;13.00;94.00;;;;;;4994588;28;20462;-42
2022/06/21 00:35:51;;;;;;;5.97;1.88;;;13.00;94.10;;;;;;5011907;28;20108;-42
2022/06/21 00:38:20;;;;;;;5.68;1.95;;;13.00;94.10;;;;;;5013939;28;20530;-43
2022/06/21 00:40:46;;;;;;;5.70;1.50;;;13.00;94.10;;;;;;5013587;28;20104;-42
2022/06/21 00:43:16;;;;;;;10.05;2.47;;;12.90;93.90;;;;;;4994022;28;20045;-42
2022/06/21 00:45:45;;;;;;;6.72;1.50;;;12.90;94.20;;;;;;5013380;28;20120;-43
2022/06/21 00:48:14;;;;;;;6.70;2.33;;;12.90;94.30;;;;;;5012934;28;20073;-43
2022/06/21 00:50:42;;;;;;;6.25;1.90;;;12.80;94.40;;;;;;5003582;28;20050;-43
2022/06/21 00:53:13;;;;;;;6.00;1.77;;;12.80;94.80;;;;;;4992562;28;20081;-43
2022/06/21 00:55:43;;;;;;;6.50;1.85;;;12.80;94.60;;;;;;5012067;28;20042;-43
2022/06/21 00:58:11;;;;;;;8.30;2.30;;;12.70;94.50;;;;;;5013335;28;20119;-43
2022/06/21 01:00:40;;;;;;;5.90;1.63;;;12.70;94.50;;;;;;4995694;28;20069;-42
2022/06/21 01:03:12;;;;;;;7.72;1.75;;;12.60;94.60;;;;;;5012891;28;20041;-42
2022/06/21 01:05:40;;;;;;;4.60;2.00;;;12.70;94.50;;;;;;4992269;28;20557;-42
2022/06/21 01:08:07;;;;;;;6.95;2.00;;;12.60;94.80;;;;;;4994963;28;20049;-44
2022/06/21 01:10:34;;;;;;;7.50;1.77;;;12.60;94.70;;;;;;5005418;28;20502;-44
2022/06/21 01:13:02;;;;;;;8.15;1.88;;;12.50;94.50;;;;;;4995222;28;20104;-42
2022/06/21 01:15:31;;;;;;;5.78;1.98;;;12.50;94.70;;;;;;4993547;28;20042;-44
2022/06/21 01:18:01;;;;;;;8.30;2.17;;;12.50;95.30;;;;;;4994695;28;20045;-42
2022/06/21 01:20:31;;;;;;;6.28;1.73;;;12.40;95.60;;;;;;5011473;28;20046;-42
2022/06/21 01:23:03;;;;;;;8.30;2.30;;;12.40;95.60;;;;;;5011273;28;20053;-42
2022/06/21 01:25:34;;;;;;;4.43;1.63;;;12.30;95.50;;;;;;5012861;28;20054;-42
2022/06/21 01:28:02;;;;;;;6.97;1.70;;;12.20;95.50;;;;;;5013584;28;20425;-43
2022/06/21 01:30:29;;;;;;;7.32;2.13;;;12.20;95.40;;;;;;5010944;28;20860;-43
2022/06/21 01:32:57;;;;;;;6.95;1.83;;;12.20;95.50;;;;;;5012388;28;20398;-42
2022/06/21 01:35:28;;;;;;;4.43;1.90;;;12.20;95.30;;;;;;5010548;28;20070;-43
2022/06/21 01:37:55;;;;;;;5.78;1.88;;;12.20;95.20;;;;;;5013134;28;20133;-42
2022/06/21 01:40:25;;;;;;;7.03;1.98;;;12.20;95.00;;;;;;5009921;28;20041;-43
2022/06/21 01:42:53;;;;;;;4.60;2.05;;;12.20;95.20;;;;;;5011386;28;20085;-42
2022/06/21 01:45:24;;;;;;;5.68;1.80;;;12.10;95.30;;;;;;5010843;28;20050;-42
2022/06/21 01:47:52;;;;;;;3.65;1.50;;;12.10;95.50;;;;;;4985950;28;20054;-43
2022/06/21 01:50:19;;;;;;;9.07;2.25;;;12.10;95.40;;;;;;5011185;28;20053;-43
2022/06/21 01:52:46;;;;;;;5.00;2.00;;;12.00;95.40;;;;;;4995555;28;20482;-44
2022/06/21 01:55:15;;;;;;;5.38;2.00;;;12.10;95.60;;;;;;5011733;28;20073;-42
2022/06/21 01:57:42;;;;;;;5.05;2.10;;;12.00;95.60;;;;;;5010515;28;20441;-44
2022/06/21 02:00:09;;;;;;;9.85;1.90;;;12.00;95.70;;;;;;4994933;28;20080;-43
2022/06/21 02:02:40;;;;;;;5.47;1.85;;;12.00;95.60;;;;;;5010459;28;20085;-43
2022/06/21 02:05:09;;;;;;;3.40;1.30;;;12.00;95.60;;;;;;5011515;28;20133;-42
2022/06/21 02:07:39;;;;;;;4.05;1.65;;;11.90;95.50;;;;;;4994581;28;20049;-43
2022/06/21 02:10:12;;;;;;;5.00;1.90;;;11.90;95.30;;;;;;5010873;28;20493;-44
2022/06/21 02:12:40;;;;;;;6.05;1.98;;;11.90;95.40;;;;;;5005529;28;20045;-43
2022/06/21 02:15:08;;;;;;;4.13;1.88;;;11.90;95.80;;;;;;5009291;28;20081;-43
2022/06/21 02:17:39;;;;;;;7.57;2.10;;;11.90;95.80;;;;;;5010792;28;20049;-43
2022/06/21 02:20:08;;;;;;;3.75;1.58;;;11.80;95.60;;;;;;5012297;28;20042;-44
2022/06/21 02:22:34;;;;;;;3.95;1.55;;;11.80;95.60;;;;;;5010635;28;20064;-42
2022/06/21 02:25:01;;;;;;;7.00;1.77;;;11.80;95.50;;;;;;5011387;28;20037;-43
2022/06/21 02:27:31;;;;;;;8.18;2.00;;;11.80;95.50;;;;;;5010682;28;20454;-42
2022/06/21 02:29:59;;;;;;;3.10;1.73;;;11.80;95.70;;;;;;5012492;28;20556;-42
2022/06/21 02:32:27;;;;;;;4.47;1.95;;;11.80;95.50;;;;;;4993924;28;20049;-42
2022/06/21 02:34:58;;;;;;;5.63;1.88;;;11.70;95.80;;;;;;4994085;28;20092;-42
2022/06/21 02:37:25;;;;;;;6.13;1.90;;;11.70;96.00;;;;;;5010146;28;20374;-42
2022/06/21 02:39:51;;;;;;;4.25;1.85;;;11.70;96.00;;;;;;5010660;28;20054;-42
2022/06/21 02:42:20;;;;;;;6.88;2.35;;;11.60;95.90;;;;;;5010362;28;20450;-42
2022/06/21 02:44:49;;;;;;;6.00;1.98;;;11.60;96.10;;;;;;4994126;28;20433;-42
2022/06/21 02:47:18;;;;;;;5.78;2.25;;;11.50;96.00;;;;;;4993998;28;20129;-42
2022/06/21 02:49:48;;;;;;;6.78;2.08;;;11.60;96.00;;;;;;4993033;28;20050;-43
2022/06/21 02:52:19;;;;;;;5.68;2.42;;;11.60;96.00;;;;;;5010878;28;20042;-43
2022/06/21 02:54:48;;;;;;;5.95;2.10;;;11.50;95.80;;;;;;4994918;28;20054;-42
2022/06/21 02:57:16;;;;;;;4.80;1.90;;;11.50;96.10;;;;;;5012733;28;20046;-43
2022/06/21 02:59:43;;;;;;;6.00;2.03;;;11.50;96.40;;;;;;5014949;28;20230;-43
2022/06/21 03:02:13;;;;;;;5.10;2.03;;;11.40;96.60;;;;;;4996724;28;20096;-42
2022/06/21 03:04:41;;;;;;;8.23;2.28;;;11.40;96.60;;;;;;5015424;28;20437;-43
2022/06/21 03:07:07;;;;;;;4.22;2.00;;;11.40;96.60;;;;;;5014502;28;20046;-44
2022/06/21 03:09:36;;;;;;;5.93;2.05;;;11.40;96.50;;;;;;4996549;28;20049;-43
2022/06/21 03:12:04;;;;;;;3.95;1.75;;;11.40;96.60;;;;;;5014772;28;20052;-43
2022/06/21 03:14:32;;;;;;;4.68;2.22;;;11.30;96.50;;;;;;4997241;28;20054;-43
2022/06/21 03:17:00;;;;;;;5.78;1.80;;;11.40;96.70;;;;;;5014450;28;20085;-43
2022/06/21 03:19:30;;;;;;;4.35;1.80;;;11.30;96.70;;;;;;5013897;28;20050;-44
2022/06/21 03:21:56;;;;;;;4.30;2.10;;;11.30;96.50;;;;;;5014664;28;20074;-43
2022/06/21 03:24:25;;;;;;;4.90;1.80;;;11.30;96.60;;;;;;5013870;28;20065;-43
2022/06/21 03:26:56;;;;;;;2.88;2.00;;;11.30;96.70;;;;;;5014175;28;20076;-43
2022/06/21 03:29:24;;;;;;;3.38;1.50;;;11.30;96.80;;;;;;5013496;28;20482;-42
2022/06/21 03:31:50;;;;;;;3.63;1.90;;;11.30;96.60;;;;;;5011534;28;20044;-42
2022/06/21 03:34:19;;;;;;;2.92;1.50;;;11.30;96.60;;;;;;5013886;28;20131;-42
2022/06/21 03:36:46;;;;;;;3.85;1.95;;;11.30;96.60;;;;;;5013985;28;20084;-42
2022/06/21 03:39:14;;;;;;;3.10;1.90;;;11.20;96.90;;;;;;4996232;28;20046;-42
2022/06/21 03:41:43;;;;;;;3.53;1.83;;;11.30;97.00;;;;;;5011421;28;20065;-42
2022/06/21 03:44:14;;;;;;;5.10;2.00;;;11.20;96.80;;;;;;4996619;28;20046;-43
2022/06/21 03:46:44;;;;;;;2.80;1.40;;;11.20;96.80;;;;;;4996400;28;20052;-42
2022/06/21 03:49:15;;;;;;;4.32;1.73;;;11.20;96.70;;;;;;4997247;28;20077;-42
2022/06/21 03:51:43;;;;;;;5.65;2.05;;;11.20;96.70;;;;;;5012095;28;20963;-42
2022/06/21 03:54:11;;;;;;;3.97;1.80;;;11.20;96.70;;;;;;5013796;28;20077;-43
2022/06/21 03:56:40;;;;;;;4.57;2.30;;;11.20;96.50;;;;;;4996618;28;20046;-43
2022/06/21 03:59:10;;;;;;;4.47;2.00;;;11.20;96.70;;;;;;5012683;28;20428;-44
2022/06/21 04:01:41;;;;;;;5.30;2.20;;;11.20;96.60;;;;;;5011433;28;20096;-43
2022/06/21 04:04:10;;;;;;;3.00;1.95;;;11.20;96.80;;;;;;5011311;28;20038;-44
2022/06/21 04:06:41;;;;;;;4.05;2.10;;;11.20;96.80;;;;;;5005999;28;20044;-42
2022/06/21 04:09:10;;;;;;;4.00;2.03;;;11.20;96.70;;;;;;5002753;28;20513;-44
2022/06/21 04:11:39;;;;;;;3.17;2.15;;;11.20;96.60;;;;;;4995396;28;20318;-43
2022/06/21 04:14:08;;;;;;;3.63;1.92;;;11.20;96.80;;;;;;5013505;28;20108;-44
2022/06/21 04:16:37;;;;;;;5.50;2.40;;;11.20;97.00;;;;;;5011602;28;20092;-43
2022/06/21 04:19:08;;;;;;;3.90;2.30;;;11.30;97.10;;;;;;5012753;28;20076;-42
2022/06/21 04:21:37;;;;;;;7.78;2.78;;;11.30;97.20;;;;;;5012266;28;20125;-42
2022/06/21 04:24:07;;;;;;;3.97;2.38;;;11.30;97.00;;;;;;5011704;28;20133;-43
2022/06/21 04:26:36;;;;;;;5.05;2.70;;;11.30;96.90;;;;;;4982197;28;20077;-42
2022/06/21 04:29:05;;;;;;;6.13;2.70;;;11.30;97.10;;;;;;5012040;28;20099;-42
2022/06/21 04:31:35;;;;;;;7.90;3.53;;;11.30;97.10;;;;;;5013182;28;20073;-43
2022/06/21 04:34:04;;;;;;;4.20;2.45;;;11.40;97.50;;;;;;5009475;28;20069;-43
2022/06/21 04:36:35;;;;;;;8.02;3.15;;;11.40;97.40;;;;;;4995893;28;20069;-42
2022/06/21 04:39:05;;;;;;;6.40;3.05;;;11.40;98.00;;;;;;4993942;28;20060;-43
2022/06/21 04:41:35;;;;;;;4.82;2.50;;;11.40;98.20;;;;;;5012008;28;20053;-43
2022/06/21 04:44:03;;;;;;;6.60;2.97;;;11.50;98.00;;;;;;5011507;28;20046;-43
2022/06/21 04:46:32;;;;;;;6.07;2.28;;;11.50;98.20;;;;;;4997885;28;20061;-44
2022/06/21 04:49:05;;;;;;;6.28;3.22;;;11.50;97.80;;;;;;4995431;28;20049;-42
2022/06/21 04:51:36;;;;;;;4.65;2.15;;;11.60;98.30;;;;;;5011988;28;20046;-42
2022/06/21 04:54:04;;;;;;;7.80;2.75;;;11.60;98.20;;;;;;5011549;28;20096;-42
2022/06/21 04:56:37;;;;;;;6.82;3.22;;;11.60;98.50;;;;;;5013018;28;20445;-43
2022/06/21 04:59:05;;;;;;;6.43;2.78;;;11.70;98.60;;;;;;5012293;28;20449;-42
2022/06/21 05:01:32;;;;;;;12.45;4.40;;;11.70;98.70;;;;;;5009619;28;20042;-43
2022/06/21 05:04:00;;;;;;;8.23;2.70;;;11.70;99.10;;;;;;4994300;28;20053;-43
2022/06/21 05:06:26;;;;;;;15.88;4.65;;;11.80;99.10;;;;;;4992596;28;20042;-43
2022/06/21 05:08:54;;;;;;;6.88;3.08;;;11.90;99.90;;;;;;5010608;28;20050;-44
2022/06/21 05:11:21;;;;;;;11.50;3.85;;;11.90;99.90;;;;;;5008995;28;20041;-43
2022/06/21 05:13:49;;;;;;;9.20;3.78;;;12.00;99.90;;;;;;5010786;28;20077;-43
2022/06/21 05:16:21;;;;;;;10.38;3.65;;;12.10;99.90;;;;;;5010256;28;20069;-44
2022/06/21 05:18:50;;;;;;;14.45;4.25;;;12.10;99.90;;;;;;4994915;28;20096;-42
2022/06/21 05:21:26;;;;;;;10.68;3.47;;;12.30;99.90;;;;;;5011211;28;20426;-42
2022/06/21 05:23:54;;;;;;;14.00;4.50;;;12.40;99.90;;;;;;5006981;28;20626;-42
2022/06/21 05:26:23;;;;;;;11.25;4.28;;;12.50;99.90;;;;;;5003896;28;20045;-42
2022/06/21 05:28:52;;;;;;;7.35;3.55;;;12.70;99.90;;;;;;4995711;28;20041;-44
2022/06/21 05:31:20;;;;;;;10.02;4.18;;;12.80;99.90;;;;;;5010836;28;20088;-44
2022/06/21 05:33:48;;;;;;;11.55;3.83;;;12.90;99.90;;;;;;5009702;28;20038;-44
2022/06/21 05:36:19;;;;;;;5.40;2.65;;;13.00;99.90;;;;;;5010623;28;20050;-43
2022/06/21 05:38:50;;;;;;;7.57;3.40;;;13.10;99.90;;;;;;5011876;28;20092;-42
2022/06/21 05:41:30;;;;;;;8.70;3.80;;;13.10;99.90;;;;;;5011030;28;20092;-42
2022/06/21 05:43:59;;;;;;;10.77;3.30;;;13.30;99.90;;;;;;5012223;28;20689;-44
2022/06/21 05:46:27;;;;;;;10.43;3.38;;;13.40;99.90;;;;;;5011179;28;20425;-44
2022/06/21 05:48:55;;;;;;;12.82;3.72;;;13.40;99.90;;;;;;5010482;28;20092;-43
2022/06/21 05:51:26;;;;;;;6.97;3.20;;;13.50;99.90;;;;;;5010946;28;20042;-43
2022/06/21 05:53:54;;;;;;;7.65;3.03;;;13.60;99.90;;;;;;4992687;28;20077;-43
2022/06/21 05:56:24;;;;;;;9.27;3.17;;;13.70;99.90;;;;;;5016899;28;20041;-42
2022/06/21 05:58:53;;;;;;;5.88;3.08;;;13.80;99.90;;;;;;4997721;28;20081;-43
2022/06/21 06:01:22;;;;;;;16.35;4.05;;;13.90;99.90;;;;;;5006569;28;20107;-42
2022/06/21 06:03:52;;;;;;;12.27;2.72;;;13.90;99.90;;;;;;4985859;28;20397;-44
2022/06/21 06:06:20;;;;;;;11.73;2.63;;;14.00;99.90;;;;;;5008711;28;20042;-43
2022/06/21 06:08:47;;;;;;;6.20;3.03;;;14.10;99.90;;;;;;5015134;28;20046;-43
2022/06/21 06:11:17;;;;;;;13.30;4.20;;;14.20;99.90;;;;;;4993363;28;20077;-44
2022/06/21 06:13:45;;;;;;;14.88;4.25;;;14.30;99.90;;;;;;5009430;28;20462;-43
2022/06/21 06:16:25;;;;;;;15.50;3.67;;;14.40;99.90;;;;;;5009205;28;20072;-43
2022/06/21 06:18:53;;;;;;;7.47;3.25;;;14.50;99.90;;;;;;5009469;28;20133;-43
2022/06/21 06:21:21;;;;;;;10.27;3.13;;;14.60;99.90;;;;;;5000955;28;20049;-43
2022/06/21 06:23:49;;;;;;;11.35;3.20;;;14.80;99.90;;;;;;5019670;28;20050;-44
2022/06/21 06:26:17;;;;;;;16.58;3.38;;;14.90;99.90;;;;;;5020693;28;20428;-43
2022/06/21 06:28:51;;;;;;;8.43;3.33;;;15.10;99.90;;;;;;5003482;28;20058;-43
2022/06/21 06:31:20;;;;;;;9.57;2.90;;;15.30;99.90;;;;;;5005791;28;20136;-44
2022/06/21 06:33:48;;;;;;;8.00;3.00;;;15.40;99.90;;;;;;5011657;28;20115;-44
2022/06/21 06:36:16;;;;;;;8.20;2.55;;;15.50;99.80;;;;;;4990616;28;20147;-44
2022/06/21 06:38:43;;;;;;;9.70;2.67;;;15.60;99.40;;;;;;5002082;28;20078;-42
2022/06/21 06:41:13;;;;;;;9.68;2.80;;;15.70;99.10;;;;;;5012621;28;20141;-42
2022/06/21 06:43:44;;;;;;;10.65;2.80;;;15.80;98.90;;;;;;5010140;28;20449;-43
2022/06/21 06:46:14;;;;;;;13.40;3.38;;;15.90;98.50;;;;;;4995154;28;20053;-44
2022/06/21 06:48:41;;;;;;;10.88;3.53;;;16.00;98.30;;;;;;5012674;28;20070;-43
2022/06/21 06:51:32;;;;;;;8.90;2.50;;;16.20;98.20;;;;;;5014331;28;20225;-43
2022/06/21 06:53:58;;;;;;;10.48;3.00;;;16.40;97.80;;;;;;4997240;28;20132;-43
2022/06/21 06:56:28;;;;;;;9.85;2.60;;;16.60;97.70;;;;;;4996878;28;20069;-43
2022/06/21 06:58:57;;;;;;;12.68;3.47;;;16.70;97.20;;;;;;5012883;28;20078;-43
2022/06/21 07:01:27;;;;;;;8.23;2.70;;;16.90;97.10;;;;;;5014109;28;20072;-42
2022/06/21 07:03:57;;;;;;;8.60;2.47;;;17.00;96.40;;;;;;5013922;28;20131;-43
2022/06/21 07:06:38;;;;;;;9.52;2.40;;;17.20;96.20;;;;;;5012274;28;20050;-44
2022/06/21 07:09:08;;;;;;;11.93;2.97;;;17.40;95.70;;;;;;5006691;28;20049;-42
2022/06/21 07:11:47;;;;;;;9.57;2.20;;;17.40;95.40;;;;;;4990104;28;20046;-43
2022/06/21 07:14:15;;;;;;;7.25;2.28;;;17.40;95.30;;;;;;4987754;28;20097;-43
2022/06/21 07:16:43;;;;;;;7.18;2.03;;;17.60;95.30;;;;;;5012603;28;20486;-43
2022/06/21 07:19:10;;;;;;;11.10;2.25;;;17.70;95.00;;;;;;5012069;28;20045;-43
2022/06/21 07:21:37;;;;;;;10.15;2.60;;;17.70;94.90;;;;;;5013436;28;20093;-43
2022/06/21 07:24:05;;;;;;;11.05;3.03;;;17.80;94.80;;;;;;5012022;28;20145;-45
2022/06/21 07:26:34;;;;;;;11.25;2.83;;;17.90;94.70;;;;;;5013336;28;20056;-43
2022/06/21 07:29:03;;;;;;;7.38;2.35;;;18.00;94.50;;;;;;5013616;28;20088;-44
2022/06/21 07:31:32;;;;;;;8.38;2.47;;;18.10;94.40;;;;;;5014271;28;20088;-42
2022/06/21 07:34:02;;;;;;;10.70;2.75;;;18.20;94.30;;;;;;5011786;28;20056;-43
2022/06/21 07:36:31;;;;;;;12.88;2.55;;;18.30;94.10;;;;;;5002121;28;20049;-42
2022/06/21 07:39:00;;;;;;;6.00;2.10;;;18.40;94.10;;;;;;5008287;28;20070;-43
2022/06/21 07:41:28;;;;;;;7.95;2.45;;;18.60;93.60;;;;;;4978090;28;20046;-43
2022/06/21 07:43:57;;;;;;;4.57;1.63;;;18.80;93.10;;;;;;4982959;28;20467;-43
2022/06/21 07:46:27;;;;;;;6.43;1.60;;;19.00;92.50;;;;;;5004133;28;20041;-42
2022/06/21 07:48:59;;;;;;;9.23;2.22;;;19.20;92.20;;;;;;5000069;28;20089;-43
2022/06/21 07:51:29;;;;;;;9.85;2.35;;;19.10;91.60;;;;;;4988702;28;20037;-43
2022/06/21 07:54:04;;;;;;;4.63;1.65;;;19.20;91.20;;;;;;4983768;28;20148;-43
2022/06/21 07:56:34;;;;;;;12.13;1.98;;;19.30;91.40;;;;;;4995407;28;20125;-42
2022/06/21 07:59:03;;;;;;;7.15;1.38;;;19.40;91.00;;;;;;4983066;28;20049;-43
2022/06/21 08:07:14;;;;;;;7.28;1.92;;;20.00;90.40;;;;;;4949379;28;20506;-42
2022/06/21 08:09:44;;;;;;;7.80;2.28;;;20.20;90.00;;;;;;5001146;28;20104;-43
2022/06/21 08:12:11;;;;;;;7.38;1.77;;;20.40;89.50;;;;;;4999122;28;20042;-43
2022/06/21 08:14:38;;;;;;;6.38;1.85;;;20.60;88.90;;;;;;4992567;28;20105;-43
2022/06/21 08:17:09;;;;;;;5.05;1.27;;;20.90;88.20;;;;;;5008667;28;20089;-43
2022/06/21 08:19:39;;;;;;;9.10;1.90;;;21.20;87.70;;;;;;5004265;28;20401;-43
2022/06/21 08:22:07;;;;;;;8.23;2.00;;;21.30;85.60;;;;;;4991004;28;20129;-43
2022/06/21 08:24:39;;;;;;;5.43;1.88;;;21.10;85.30;;;;;;4994418;28;20097;-43
2022/06/21 08:27:12;;;;;;;6.18;1.77;;;21.10;86.00;;;;;;4974235;28;20042;-43
2022/06/21 08:29:41;;;;;;;7.97;1.60;;;21.20;86.20;;;;;;4981564;28;20047;-44
2022/06/21 08:32:10;;;;;;;8.27;2.30;;;21.30;84.90;;;;;;4995013;28;20061;-43
2022/06/21 08:34:40;;;;;;;8.10;1.95;;;21.40;84.60;;;;;;4990331;28;20084;-43
2022/06/21 08:37:09;;;;;;;6.18;1.58;;;21.40;84.20;;;;;;4993890;28;20125;-44
2022/06/21 08:39:40;;;;;;;7.88;2.03;;;21.40;82.90;;;;;;4992515;28;20050;-44
2022/06/21 08:42:43;;;;;;;9.65;1.83;;;21.30;82.80;;;;;;4974022;28;20046;-43
2022/06/21 08:45:46;;;;;;;8.63;1.85;;;21.10;82.60;;;;;;4992053;28;20564;-43
2022/06/21 08:49:04;;;;;;;7.80;1.95;;;20.90;84.60;;;;;;4991631;28;20545;-43
2022/06/21 08:51:51;;;;;;;6.97;2.30;;;21.00;85.00;;;;;;4962959;28;20046;-43
2022/06/21 08:54:25;;;;;;;6.47;2.20;;;21.30;85.30;;;;;;4980352;28;20083;-43
2022/06/21 08:57:00;;;;;;;6.40;1.90;;;21.60;84.10;;;;;;4989840;28;20450;-43
2022/06/21 08:59:31;;;;;;;7.07;2.00;;;21.90;83.80;;;;;;4973176;28;20108;-43
2022/06/21 09:02:02;;;;;;;7.43;2.27;;;22.10;81.30;;;;;;4992415;28;20042;-43
2022/06/21 09:04:33;;;;;;;;;;;22.10;79.70;;;;;;4987190;28;20077;-43
2022/06/21 09:07:29;;;;;;;6.15;1.95;;;21.80;80.00;;;;;;4989121;28;19972;-43
2022/06/21 09:10:14;;;;;;;7.50;2.10;;;21.60;81.20;;;;;;4988225;28;20054;-43
2022/06/21 09:12:48;;;;;;;6.80;2.30;;;21.80;81.50;;;;;;4974643;28;20482;-43
2022/06/21 09:15:27;;;;;;;4.80;2.00;;;22.00;80.50;;;;;;4973748;28;20058;-44
2022/06/21 09:18:00;;;;;;;7.95;2.00;;;22.20;78.70;;;;;;4988592;28;20042;-43
2022/06/21 09:20:33;;;;;;;7.32;2.22;;;22.30;78.80;;;;;;4988481;28;20045;-43
2022/06/21 09:23:05;;;;;;;9.50;1.70;;;22.50;78.30;;;;;;4987764;28;20061;-43
2022/06/21 09:25:38;;;;;;;7.28;1.95;;;22.60;77.80;;;;;;4987227;28;20058;-42
2022/06/21 09:28:09;;;;;;;6.32;1.80;;;22.60;77.80;;;;;;4990564;28;20090;-43
2022/06/21 09:30:38;;;;;;;4.70;1.30;;;22.70;76.30;;;;;;4980162;28;20054;-44
2022/06/21 09:33:09;;;;;;;4.85;1.60;;;22.70;76.10;;;;;;4971520;28;20094;-43
2022/06/21 09:35:41;;;;;;;3.40;1.45;;;22.70;76.00;;;;;;4986793;28;20042;-43
2022/06/21 09:38:17;;;;;;;4.15;1.25;;;23.00;76.50;;;;;;5000125;28;20062;-44
2022/06/21 09:40:47;;;;;;;7.50;1.90;;;23.30;75.70;;;;;;4993146;28;20378;-44
2022/06/21 09:43:21;;;;;;;5.78;1.88;;;23.60;73.50;;;;;;5009508;28;20466;-44
2022/06/21 09:45:50;;;;;;;4.18;1.40;;;23.80;73.50;;;;;;5000051;28;20473;-44
2022/06/21 09:48:19;;;;;;;6.45;1.67;;;24.00;73.30;;;;;;4993282;28;20073;-44
2022/06/21 09:50:52;;;;;;;7.60;2.00;;;24.10;72.50;;;;;;4992591;28;20087;-42
2022/06/21 09:53:22;;;;;;;6.93;1.67;;;24.20;71.00;;;;;;4987040;28;20117;-43
2022/06/21 09:55:54;;;;;;;3.50;1.25;;;24.20;69.70;;;;;;5007261;28;20595;-44
2022/06/21 09:58:24;;;;;;;6.63;1.70;;;24.10;71.20;;;;;;5001581;28;20137;-43
2022/06/21 10:00:56;;;;;;;9.30;1.77;;;24.10;71.30;;;;;;4986175;28;20052;-44
2022/06/21 10:03:31;;;;;;;6.70;1.60;;;23.90;70.70;;;;;;4981705;28;20066;-44
2022/06/21 10:06:01;;;;;;;4.40;1.40;;;23.80;69.80;;;;;;4991560;28;20551;-43
2022/06/21 10:08:40;;;;;;;4.95;1.65;;;23.80;69.50;;;;;;4995166;28;20678;-44
2022/06/21 10:11:11;;;;;;;3.78;1.30;;;23.70;69.60;;;;;;4977954;28;20498;-44
2022/06/21 10:14:04;;;;;;;7.13;1.65;;;23.70;69.90;;;;;;5004930;28;20078;-44
2022/06/21 10:16:43;;;;;;;4.90;1.75;;;23.50;67.70;;;;;;4989720;28;20092;-43
2022/06/21 10:19:16;;;;;;;4.57;1.63;;;23.30;68.70;;;;;;4978013;28;20050;-43
2022/06/21 10:21:58;;;;;;;7.05;1.98;;;23.30;70.30;;;;;;5006858;28;20147;-43
2022/06/21 10:24:40;;;;;;;5.45;1.48;;;23.50;68.00;;;;;;4990032;28;20116;-43
2022/06/21 10:27:15;;;;;;;4.85;1.60;;;23.70;67.70;;;;;;4986593;28;20045;-43
2022/06/21 10:30:04;;;;;;;7.03;1.77;;;23.80;67.20;;;;;;4989824;28;20072;-44
2022/06/21 10:32:45;;;;;;;5.90;1.40;;;24.20;68.20;;;;;;4997915;28;20088;-43
2022/06/21 10:35:48;;;;;;;9.43;1.40;;;24.50;67.80;;;;;;4982901;28;20050;-43
2022/06/21 10:38:33;;;;;;;7.57;2.15;;;24.70;66.80;;;;;;4980941;28;20050;-43
2022/06/21 10:41:16;;;;;;;2.28;1.00;;;24.60;66.40;;;;;;4980061;28;20390;-43
2022/06/21 10:44:18;;;;;;;4.43;1.30;;;24.60;67.40;;;;;;4984414;28;20517;-43
2022/06/21 10:46:49;;;;;;;7.60;1.63;;;24.90;67.50;;;;;;4989767;28;20088;-42
2022/06/21 10:49:25;;;;;;;6.50;1.80;;;25.20;64.90;;;;;;5011745;28;20050;-43
2022/06/21 10:52:11;;;;;;;4.97;1.30;;;25.20;65.10;;;;;;5010825;28;20062;-43
2022/06/21 10:54:57;;;;;;;4.95;1.63;;;25.40;64.60;;;;;;4988984;28;20533;-44
2022/06/21 10:57:30;;;;;;;5.03;1.85;;;25.40;63.10;;;;;;5007803;28;20065;-44
2022/06/21 11:03:26;;;;;;;5.72;1.40;;;25.50;62.00;;;;;;5003258;28;20045;-43
2022/06/21 11:05:59;;;;;;;5.82;1.48;;;25.70;60.90;;;;;;4984039;28;20101;-44
2022/06/21 11:08:30;;;;;;;6.65;1.48;;;25.80;61.30;;;;;;5011296;28;21229;-42
2022/06/21 11:10:59;;;;;;;4.53;1.65;;;25.90;60.80;;;;;;5031400;28;20099;-42
2022/06/21 11:13:30;;;;;;;2.92;1.30;;;26.10;60.10;;;;;;5013838;28;20100;-42
2022/06/21 11:16:00;;;;;;;8.07;1.77;;;26.20;59.60;;;;;;4986194;28;20078;-42
2022/06/21 11:18:39;;;;;;;7.45;1.65;;;26.30;59.10;;;;;;5003575;28;20081;-43
2022/06/21 11:21:10;;;;;;;7.13;1.40;;;26.30;58.00;;;;;;4996400;28;20108;-43
2022/06/21 11:23:47;;;;;;;4.18;1.55;;;26.40;58.00;;;;;;5007128;28;20243;-43
2022/06/21 11:26:18;;;;;;;5.15;1.52;;;26.40;58.10;;;;;;5029356;28;20053;-42
2022/06/21 11:28:47;;;;;;;4.78;1.40;;;26.30;58.40;;;;;;5022190;28;20046;-42
2022/06/21 11:31:17;;;;;;;3.97;1.42;;;26.20;56.80;;;;;;5011119;28;20474;-43
2022/06/21 11:33:51;;;;;;;8.68;1.52;;;26.10;57.00;;;;;;4997414;28;20100;-43
2022/06/21 11:36:22;;;;;;;6.63;1.52;;;26.10;57.20;;;;;;5009455;28;20081;-43
2022/06/21 11:38:52;;;;;;;;;;;26.20;56.70;;;;;;4990540;28;20115;-44
2022/06/21 11:44:06;;;;;;;3.22;1.48;;;26.50;57.80;;;;;;5022290;28;20062;-43
2022/06/21 11:46:35;;;;;;;3.22;1.20;;;26.60;56.90;;;;;;5012198;28;20037;-42
2022/06/21 11:49:35;;;;;;;4.13;1.30;;;26.70;56.80;;;;;;5009087;28;20548;-43
2022/06/21 11:52:24;;;;;;;5.47;1.17;;;26.90;56.80;;;;;;5003132;28;20042;-43
2022/06/21 11:54:54;;;;;;;4.32;1.30;;;26.90;55.30;;;;;;4995741;28;20486;-44
2022/06/21 11:57:25;;;;;;;3.92;0.88;;;26.90;56.30;;;;;;4983714;28;20042;-44
2022/06/21 11:59:56;;;;;;;2.90;1.40;;;27.00;56.50;;;;;;5014159;28;20104;-44
2022/06/21 12:02:27;;;;;;;3.13;1.08;;;27.10;54.30;;;;;;5007203;28;20434;-48
2022/06/21 12:04:56;;;;;;;;;;;27.20;55.60;;;;;;5014688;28;20128;-44
2022/06/21 12:07:33;;;;;;;3.88;1.15;;;27.10;55.90;;;;;;4995120;28;20007;-43
2022/06/21 12:10:03;;;;;;;4.15;1.20;;;27.20;55.50;;;;;;5010136;28;20045;-43
2022/06/21 12:12:48;;;;;;;3.17;1.20;;;27.30;55.70;;;;;;4998888;28;20082;-44
2022/06/21 12:15:27;;;;;;;4.53;1.48;;;27.40;55.70;;;;;;5009296;28;20135;-44
2022/06/21 12:17:55;;;;;;;5.72;1.23;;;27.40;53.30;;;;;;4991772;28;20575;-44
2022/06/21 12:20:25;;;;;;;3.00;1.23;;;27.40;53.50;;;;;;5006827;28;20108;-44
2022/06/21 12:22:54;;;;;;;5.47;1.10;;;27.50;55.50;;;;;;5007031;28;20049;-43
2022/06/21 12:25:21;;;;;;;3.85;1.20;;;27.50;53.80;;;;;;4995382;28;20045;-44
2022/06/21 12:27:48;;;;;;;4.45;1.08;;;27.50;53.50;;;;;;4995340;28;20425;-43
2022/06/21 12:30:17;;;;;;;4.30;1.40;;;27.50;52.90;;;;;;4993932;28;20045;-43
2022/06/21 12:32:44;;;;;;;3.58;1.40;;;27.60;51.80;;;;;;4995369;28;20112;-45
2022/06/21 12:35:15;;;;;;;3.63;0.90;;;27.40;53.10;;;;;;4994464;28;20505;-44
2022/06/21 12:37:45;;;;;;;2.45;0.90;;;27.30;53.10;;;;;;4981348;28;20429;-44
2022/06/21 12:40:17;;;;;;;4.38;1.27;;;27.20;53.50;;;;;;5012805;28;20062;-43
2022/06/21 12:43:00;;;;;;;6.50;1.05;;;27.20;51.80;;;;;;5002268;28;20506;-44
2022/06/21 12:45:39;;;;;;;5.43;1.27;;;27.20;52.20;;;;;;4986949;28;20049;-44
2022/06/21 12:48:17;;;;;;;3.65;0.90;;;27.20;53.30;;;;;;4995947;28;20052;-44
2022/06/21 12:50:47;;;;;;;4.05;0.93;;;27.20;53.40;;;;;;5013414;28;20540;-44
2022/06/21 12:53:39;;;;;;;3.47;0.98;;;27.10;50.80;;;;;;5005158;28;20042;-44
2022/06/21 12:56:09;;;;;;;5.00;1.08;;;27.10;51.80;;;;;;5006259;28;20054;-44
2022/06/21 12:58:59;;;;;;;5.20;0.90;;;27.00;49.80;;;;;;4976714;28;20073;-45
2022/06/21 13:01:29;;;;;;;3.20;0.77;;;27.10;51.40;;;;;;4987166;28;20502;-45
2022/06/21 13:04:04;;;;;;;1.77;0.77;;;27.30;51.10;;;;;;5013292;28;20053;-43
2022/06/21 13:07:06;;;;;;;2.67;1.10;;;27.40;51.40;;;;;;4996111;28;20056;-44
2022/06/21 13:09:45;;;;;;;5.50;1.10;;;27.70;51.10;;;;;;4997361;28;20143;-44
2022/06/21 13:12:41;;;;;;;2.30;0.90;;;27.80;49.40;;;;;;5014124;28;20129;-45
2022/06/21 13:15:40;;;;;;;2.17;0.88;;;27.90;48.50;;;;;;4982856;28;20382;-44
2022/06/21 13:18:16;;;;;;;1.40;0.73;;;28.00;48.20;;;;;;5011232;28;20430;-44
2022/06/21 13:20:47;;;;;;;2.05;0.70;;;28.20;48.70;;;;;;5002103;28;20121;-43